West Dade, Florida
Current Conditions -  °F | °C
As of 4:53 PM on Sunday 23 Nov 2014 (Local Time) from KTMB Reporting Station
Scattered Clouds Scattered Clouds  
Wind Chill: 80°   Ceiling: Unl
Heat Index: 85°   Visibility: 10mi
Dew Point: 74°   Wind: 13mph
Humidity: 81%   Direction: 150°SSE
Pressure: 29.92"   Gusts: NA
Location:  25.5736°N, 80.7073°W
Report Text: KTMB 232153Z 15011KT 10SM FEW016 SCT042 27/23 A2992 RMK AO2 SLP132 T02670233
Loading
Personal Weather Stations






























Interactive Weather Map New forecast layout! Learn more

10-Day Weather Forecast

Advertisements
Track Severe Weather on mobile